Time;durP1;ratioP1;P1;durP2;ratioP2;P2;SDS_P1;SDS_P2;PMS_P1;PMS_P2;Temp;Humidity;BMP_temperature;BMP_pressure;BME280_temperature;BME280_humidity;BME280_pressure;Samples;Min_cycle;Max_cycle;Signal;HPM_P1;HPM_P2
2024/01/09 00:01:00;;;;;;;2.10;2.00;;;-4.00;98.20;;;;;;6142540;23;20478;-78
2024/01/09 00:03:26;;;;;;;2.00;1.90;;;-4.00;98.20;;;;;;6137296;23;20431;-76
2024/01/09 00:05:53;;;;;;;2.10;2.00;;;-4.00;98.20;;;;;;6143102;23;20427;-78
2024/01/09 00:08:20;;;;;;;2.10;2.00;;;-4.00;98.20;;;;;;6135005;23;20437;-78
2024/01/09 00:10:47;;;;;;;2.10;2.00;;;-4.00;98.20;;;;;;6153704;23;20417;-77
2024/01/09 00:13:16;;;;;;;2.10;2.00;;;-4.00;98.20;;;;;;6135153;23;20941;-78
2024/01/09 00:15:45;;;;;;;2.00;1.90;;;-4.00;98.20;;;;;;6160499;23;20774;-77
2024/01/09 00:18:11;;;;;;;2.10;2.00;;;-4.00;98.20;;;;;;6119204;23;20496;-77
2024/01/09 00:20:38;;;;;;;2.00;1.90;;;-4.00;98.20;;;;;;6159725;23;20496;-78
2024/01/09 00:23:05;;;;;;;2.10;2.00;;;-4.00;98.20;;;;;;6120199;23;20509;-77
2024/01/09 00:25:32;;;;;;;2.00;1.90;;;-4.00;98.20;;;;;;6160162;23;20480;-77
2024/01/09 00:27:58;;;;;;;2.37;2.20;;;-4.00;98.20;;;;;;6118584;23;20450;-78
2024/01/09 00:30:25;;;;;;;2.00;1.90;;;-4.10;98.20;;;;;;6157193;23;20449;-77
2024/01/09 00:32:53;;;;;;;2.10;2.00;;;-4.10;98.20;;;;;;6116648;23;20454;-77
2024/01/09 00:35:20;;;;;;;2.10;2.00;;;-4.10;98.20;;;;;;6156968;23;20489;-77
2024/01/09 00:37:47;;;;;;;2.20;2.10;;;-4.10;98.20;;;;;;6117406;23;20512;-77
2024/01/09 00:40:14;;;;;;;2.47;2.27;;;-4.10;98.20;;;;;;6159384;23;20492;-77
2024/01/09 00:42:40;;;;;;;4.53;4.13;;;-4.10;98.20;;;;;;6119013;23;20807;-77
2024/01/09 00:45:08;;;;;;;2.40;2.20;;;-4.10;98.20;;;;;;6158142;23;20485;-77
2024/01/09 00:47:35;;;;;;;2.10;2.00;;;-4.10;98.20;;;;;;6117241;23;20516;-74
2024/01/09 00:50:04;;;;;;;2.10;2.00;;;-4.10;98.20;;;;;;6148560;23;20837;-76
2024/01/09 00:52:30;;;;;;;2.10;2.00;;;-4.10;98.20;;;;;;6113564;23;20480;-76
2024/01/09 00:54:57;;;;;;;2.00;1.90;;;-4.10;98.20;;;;;;6148356;23;20417;-76
2024/01/09 00:57:24;;;;;;;2.07;1.97;;;-4.10;98.20;;;;;;6114226;23;20560;-76
2024/01/09 00:59:50;;;;;;;2.10;2.00;;;-4.10;98.20;;;;;;6146676;23;20960;-76
2024/01/09 01:02:17;;;;;;;2.10;2.00;;;-4.10;98.20;;;;;;6118304;23;21020;-76
2024/01/09 01:04:44;;;;;;;2.20;2.10;;;-4.20;98.20;;;;;;6147150;23;20425;-76
2024/01/09 01:07:12;;;;;;;2.10;2.00;;;-4.20;98.20;;;;;;6119533;23;20540;-77
2024/01/09 01:09:39;;;;;;;2.10;2.00;;;-4.20;98.20;;;;;;6143484;23;20457;-76
2024/01/09 01:12:06;;;;;;;2.10;2.00;;;-4.20;98.20;;;;;;6120046;23;20453;-75
2024/01/09 01:14:33;;;;;;;4.00;3.70;;;-4.20;98.20;;;;;;6143658;23;20500;-76
2024/01/09 01:17:00;;;;;;;2.20;2.07;;;-4.20;98.20;;;;;;6121173;23;20476;-76
2024/01/09 01:19:27;;;;;;;2.10;2.00;;;-4.20;98.20;;;;;;6141186;23;20441;-76
2024/01/09 01:21:54;;;;;;;2.30;2.10;;;-4.20;98.20;;;;;;6122838;23;20449;-76
2024/01/09 01:24:22;;;;;;;2.20;2.10;;;-4.20;98.20;;;;;;6140960;23;20511;-76
2024/01/09 01:26:48;;;;;;;2.10;2.00;;;-4.20;98.20;;;;;;6123601;23;20450;-76
2024/01/09 01:29:15;;;;;;;2.20;2.10;;;-4.20;98.20;;;;;;6139307;23;21050;-76
2024/01/09 01:31:42;;;;;;;2.10;2.00;;;-4.20;98.20;;;;;;6124691;23;21387;-76
2024/01/09 01:34:09;;;;;;;2.40;2.20;;;-4.30;98.20;;;;;;6138542;23;20424;-76
2024/01/09 01:36:36;;;;;;;2.17;2.07;;;-4.30;98.20;;;;;;6126651;23;20450;-76
2024/01/09 01:39:02;;;;;;;2.10;2.00;;;-4.30;98.20;;;;;;6136861;23;20519;-76
2024/01/09 01:41:30;;;;;;;2.17;2.03;;;-4.30;98.20;;;;;;6126751;23;20923;-76
2024/01/09 01:43:57;;;;;;;2.27;2.10;;;-4.40;98.20;;;;;;6136082;23;20421;-76
2024/01/09 01:46:24;;;;;;;2.10;2.00;;;-4.40;98.20;;;;;;6127317;23;20524;-76
2024/01/09 01:48:51;;;;;;;2.30;2.10;;;-4.40;98.20;;;;;;6133419;23;20440;-76
2024/01/09 01:51:18;;;;;;;2.10;2.00;;;-4.40;98.20;;;;;;6129599;23;20457;-75
2024/01/09 01:53:45;;;;;;;2.20;2.10;;;-4.40;98.20;;;;;;6133321;23;20748;-76
2024/01/09 01:56:13;;;;;;;2.10;2.00;;;-4.50;98.20;;;;;;6130158;23;20472;-76
2024/01/09 01:58:41;;;;;;;2.10;2.00;;;-4.50;98.20;;;;;;6130332;23;20459;-77
2024/01/09 02:01:08;;;;;;;2.10;2.00;;;-4.50;98.20;;;;;;6133235;23;21005;-77
2024/01/09 02:03:35;;;;;;;2.20;2.10;;;-4.50;98.20;;;;;;6130436;23;20429;-76
2024/01/09 02:06:02;;;;;;;2.10;2.00;;;-4.50;98.20;;;;;;6132822;23;20421;-76
2024/01/09 02:08:31;;;;;;;2.20;2.10;;;-4.50;98.20;;;;;;6128785;23;20437;-76
2024/01/09 02:10:58;;;;;;;2.20;2.10;;;-4.50;98.20;;;;;;6133310;23;20444;-76
2024/01/09 02:13:25;;;;;;;2.10;2.00;;;-4.50;98.20;;;;;;6128010;23;20417;-77
2024/01/09 02:15:53;;;;;;;2.10;2.00;;;-4.50;98.20;;;;;;6135373;23;20417;-75
2024/01/09 02:18:20;;;;;;;2.20;2.10;;;-4.50;98.20;;;;;;6127255;23;20472;-76
2024/01/09 02:20:46;;;;;;;2.20;2.10;;;-4.50;98.20;;;;;;6141638;23;20461;-75
2024/01/09 02:23:13;;;;;;;2.13;2.00;;;-4.50;98.20;;;;;;6126178;23;20428;-76
2024/01/09 02:25:40;;;;;;;2.20;2.10;;;-4.50;98.20;;;;;;6144898;23;20424;-76
2024/01/09 02:28:12;;;;;;;2.20;2.10;;;-4.50;98.20;;;;;;6109610;23;20492;-76
2024/01/09 02:30:41;;;;;;;2.10;2.00;;;-4.50;98.20;;;;;;6150508;23;20440;-76
2024/01/09 02:33:09;;;;;;;2.10;2.00;;;-4.50;98.20;;;;;;6117898;23;20965;-78
2024/01/09 02:35:36;;;;;;;2.60;2.40;;;-4.50;98.20;;;;;;6158318;23;20480;-79
2024/01/09 02:38:03;;;;;;;2.10;2.00;;;-4.50;98.20;;;;;;6117456;23;20458;-78
2024/01/09 02:40:30;;;;;;;2.10;2.00;;;-4.50;98.20;;;;;;6159768;23;20418;-78
2024/01/09 02:42:57;;;;;;;2.20;2.10;;;-4.50;98.20;;;;;;6115313;23;20524;-75
2024/01/09 02:45:23;;;;;;;2.20;2.10;;;-4.60;98.20;;;;;;6148036;23;20420;-76
2024/01/09 02:47:52;;;;;;;1.93;1.83;;;-4.60;98.20;;;;;;6109789;23;20461;-75
2024/01/09 02:50:20;;;;;;;2.33;2.17;;;-4.60;98.20;;;;;;6150334;23;20444;-76
2024/01/09 02:52:46;;;;;;;2.10;2.00;;;-4.60;98.20;;;;;;6110884;23;20957;-76
2024/01/09 02:55:13;;;;;;;2.13;2.03;;;-4.60;98.20;;;;;;6150780;23;20416;-75
2024/01/09 02:57:41;;;;;;;2.23;2.07;;;-4.60;98.20;;;;;;6110414;23;20823;-76
2024/01/09 03:00:09;;;;;;;2.30;2.20;;;-4.60;98.20;;;;;;6152475;23;20638;-77
2024/01/09 03:02:36;;;;;;;2.10;2.00;;;-4.60;98.20;;;;;;6120915;23;20449;-77
2024/01/09 03:05:04;;;;;;;2.20;2.10;;;-4.70;98.20;;;;;;6156823;23;20731;-78
2024/01/09 03:07:31;;;;;;;2.10;2.00;;;-4.70;98.20;;;;;;6118508;23;20449;-77
2024/01/09 03:09:58;;;;;;;2.10;2.00;;;-4.70;98.20;;;;;;6155529;23;20445;-77
2024/01/09 03:12:25;;;;;;;2.10;2.00;;;-4.70;98.20;;;;;;6129197;23;20521;-77
2024/01/09 03:14:52;;;;;;;2.10;2.00;;;-4.70;98.20;;;;;;6159923;23;20946;-77
2024/01/09 03:17:19;;;;;;;2.10;2.00;;;-4.70;98.20;;;;;;6122774;23;20461;-77
2024/01/09 03:19:46;;;;;;;2.10;2.00;;;-4.70;98.20;;;;;;6152838;23;20833;-77
2024/01/09 03:22:14;;;;;;;2.10;2.00;;;-4.70;98.20;;;;;;6124926;23;20449;-77
2024/01/09 03:24:41;;;;;;;2.20;2.10;;;-4.70;98.20;;;;;;6159602;23;20416;-77
2024/01/09 03:27:07;;;;;;;2.10;2.00;;;-4.70;98.20;;;;;;6125121;23;20476;-77
2024/01/09 03:29:34;;;;;;;2.20;2.10;;;-4.70;98.20;;;;;;6148824;23;20456;-77
2024/01/09 03:32:01;;;;;;;2.30;2.10;;;-4.80;98.20;;;;;;6127060;23;20886;-77
2024/01/09 03:34:28;;;;;;;2.10;2.00;;;-4.80;98.20;;;;;;6149577;23;20444;-77
2024/01/09 03:36:55;;;;;;;2.00;1.90;;;-4.80;98.20;;;;;;6126779;23;20532;-77
2024/01/09 03:39:23;;;;;;;2.20;2.10;;;-4.80;98.20;;;;;;6155954;23;20443;-77
2024/01/09 03:41:52;;;;;;;4.23;4.03;;;-4.80;98.20;;;;;;6129346;23;20449;-77
2024/01/09 03:44:18;;;;;;;2.10;2.00;;;-4.80;98.20;;;;;;6146701;23;20902;-77
2024/01/09 03:46:45;;;;;;;2.20;2.10;;;-4.80;98.20;;;;;;6129055;23;20884;-77
2024/01/09 03:49:12;;;;;;;3.03;2.83;;;-4.80;98.20;;;;;;6143907;23;21100;-77
2024/01/09 03:51:39;;;;;;;2.10;2.00;;;-4.80;98.20;;;;;;6131435;23;20524;-77
2024/01/09 03:54:05;;;;;;;2.10;2.00;;;-4.80;98.20;;;;;;6144550;23;20421;-78
2024/01/09 03:56:33;;;;;;;2.10;2.00;;;-4.80;98.20;;;;;;6131521;23;20453;-78
2024/01/09 03:59:00;;;;;;;2.10;2.00;;;-4.90;98.20;;;;;;6141819;23;20448;-78
2024/01/09 04:01:27;;;;;;;2.10;2.00;;;-4.90;98.20;;;;;;6135821;23;20456;-76
2024/01/09 04:03:54;;;;;;;2.20;2.10;;;-4.90;98.20;;;;;;6143030;23;20464;-77
2024/01/09 04:06:20;;;;;;;2.20;2.10;;;-4.90;98.20;;;;;;6135335;23;21236;-77
2024/01/09 04:08:47;;;;;;;2.97;2.77;;;-4.90;98.20;;;;;;6139297;23;20445;-77
2024/01/09 04:11:14;;;;;;;2.20;2.10;;;-4.90;98.20;;;;;;6136343;23;20450;-77
2024/01/09 04:13:42;;;;;;;2.20;2.10;;;-4.90;98.20;;;;;;6156271;23;20476;-76
2024/01/09 04:16:11;;;;;;;2.20;2.10;;;-5.00;98.20;;;;;;6142902;23;20452;-77
2024/01/09 04:18:38;;;;;;;2.20;2.10;;;-5.00;98.20;;;;;;6139599;23;20437;-78
2024/01/09 04:21:05;;;;;;;2.20;2.10;;;-5.00;98.20;;;;;;6137190;23;20775;-77
2024/01/09 04:23:32;;;;;;;2.10;2.00;;;-5.00;98.20;;;;;;6145688;23;20409;-77
2024/01/09 04:25:59;;;;;;;2.30;2.10;;;-5.00;98.20;;;;;;6138924;23;20421;-78
2024/01/09 04:28:25;;;;;;;2.20;2.10;;;-5.00;98.20;;;;;;6136068;23;20523;-75
2024/01/09 04:30:56;;;;;;;2.23;2.13;;;-5.00;98.20;;;;;;6139256;23;20444;-78
2024/01/09 04:33:22;;;;;;;2.23;2.10;;;-5.00;98.20;;;;;;6135060;23;20701;-78
2024/01/09 04:35:50;;;;;;;2.10;2.00;;;-5.00;98.20;;;;;;6142514;23;20425;-77
2024/01/09 04:38:16;;;;;;;2.20;2.10;;;-5.00;98.20;;;;;;6132757;23;20504;-77
2024/01/09 04:40:43;;;;;;;2.30;2.10;;;-5.00;98.20;;;;;;6158066;23;20416;-78
2024/01/09 04:43:10;;;;;;;2.20;2.10;;;-5.00;98.20;;;;;;6118409;23;20454;-77
2024/01/09 04:45:37;;;;;;;2.10;2.00;;;-5.00;98.20;;;;;;6157244;23;20420;-77
2024/01/09 04:48:06;;;;;;;2.50;2.30;;;-5.00;98.20;;;;;;6115473;23;20454;-78
2024/01/09 04:50:32;;;;;;;2.10;2.00;;;-5.00;98.20;;;;;;6165249;23;20449;-77
2024/01/09 04:52:59;;;;;;;2.20;2.10;;;-5.00;98.20;;;;;;6110975;23;20450;-77
2024/01/09 04:55:26;;;;;;;2.10;2.00;;;-5.00;98.20;;;;;;6149007;23;20782;-76
2024/01/09 04:57:52;;;;;;;2.40;2.20;;;-5.00;98.20;;;;;;6111928;23;20454;-77
2024/01/09 05:00:19;;;;;;;2.00;1.90;;;-5.00;98.20;;;;;;6153461;23;20401;-77
2024/01/09 05:02:46;;;;;;;2.10;2.00;;;-5.00;98.20;;;;;;6112927;23;20501;-77
2024/01/09 05:05:18;;;;;;;2.20;2.10;;;-5.00;98.20;;;;;;6151813;23;20435;-76
2024/01/09 05:07:46;;;;;;;2.20;2.10;;;-5.10;98.20;;;;;;6109413;23;20453;-77
2024/01/09 05:10:12;;;;;;;2.23;2.10;;;-5.00;98.20;;;;;;6151292;23;20880;-77
2024/01/09 05:12:39;;;;;;;2.20;2.10;;;-5.00;98.20;;;;;;6114306;23;20450;-77
2024/01/09 05:15:07;;;;;;;4.20;4.00;;;-5.10;98.20;;;;;;6151014;23;20421;-78
2024/01/09 05:17:35;;;;;;;2.20;2.10;;;-5.10;98.20;;;;;;6114007;23;20601;-77
2024/01/09 05:20:03;;;;;;;2.20;2.10;;;-5.10;98.20;;;;;;6152688;23;20417;-78
2024/01/09 05:22:31;;;;;;;2.20;2.10;;;-5.10;98.20;;;;;;6119707;23;20497;-77
2024/01/09 05:24:57;;;;;;;2.20;2.10;;;-5.10;98.20;;;;;;6151355;23;20423;-77
2024/01/09 05:27:24;;;;;;;2.20;2.10;;;-5.10;98.20;;;;;;6117292;23;20450;-77
2024/01/09 05:29:51;;;;;;;2.20;2.10;;;-5.10;98.20;;;;;;6146631;23;21163;-76
2024/01/09 05:32:18;;;;;;;2.17;2.07;;;-5.10;98.20;;;;;;6118156;23;20453;-78
2024/01/09 05:34:44;;;;;;;2.30;2.10;;;-5.10;98.20;;;;;;6147235;23;20417;-77
2024/01/09 05:37:11;;;;;;;2.20;2.10;;;-5.10;98.20;;;;;;6120595;23;20450;-78
2024/01/09 05:39:39;;;;;;;2.33;2.13;;;-5.10;98.20;;;;;;6155262;23;20532;-78
2024/01/09 05:42:06;;;;;;;2.10;2.00;;;-5.10;98.20;;;;;;6121041;23;20509;-78
2024/01/09 05:44:33;;;;;;;2.20;2.10;;;-5.10;98.20;;;;;;6146018;23;20512;-77
2024/01/09 05:47:00;;;;;;;2.23;2.10;;;-5.10;98.20;;;;;;6123286;23;20817;-78
2024/01/09 05:49:27;;;;;;;2.10;2.00;;;-5.10;98.20;;;;;;6145770;23;20965;-76
2024/01/09 05:51:54;;;;;;;2.20;2.10;;;-5.10;98.20;;;;;;6128067;23;20954;-78
2024/01/09 05:54:20;;;;;;;2.20;2.10;;;-5.10;98.20;;;;;;6150128;23;20421;-77
2024/01/09 05:56:48;;;;;;;2.20;2.10;;;-5.10;98.20;;;;;;6131081;23;20529;-76
2024/01/09 05:59:16;;;;;;;2.23;2.13;;;-5.10;98.20;;;;;;6144312;23;20559;-77
2024/01/09 06:01:43;;;;;;;2.10;2.00;;;-5.10;98.20;;;;;;6130699;23;20855;-75
2024/01/09 06:04:10;;;;;;;2.40;2.20;;;-5.10;98.20;;;;;;6143105;23;20417;-77
2024/01/09 06:06:36;;;;;;;2.23;2.10;;;-5.10;98.20;;;;;;6127728;23;20514;-78
2024/01/09 06:09:03;;;;;;;2.27;2.10;;;-5.10;98.20;;;;;;6144981;23;20504;-77
2024/01/09 06:11:30;;;;;;;2.20;2.10;;;-5.10;98.20;;;;;;6135396;23;20513;-77
2024/01/09 06:13:58;;;;;;;2.30;2.10;;;-5.10;98.20;;;;;;6136558;23;20425;-77
2024/01/09 06:16:25;;;;;;;2.30;2.10;;;-5.10;98.20;;;;;;6133353;23;20532;-77
2024/01/09 06:18:52;;;;;;;2.40;2.20;;;-5.10;98.20;;;;;;6138268;23;20440;-77
2024/01/09 06:21:19;;;;;;;2.50;2.30;;;-5.10;98.20;;;;;;6134213;23;21057;-77
2024/01/09 06:23:48;;;;;;;2.27;2.10;;;-5.10;98.20;;;;;;6138693;23;20703;-76
2024/01/09 06:26:15;;;;;;;2.10;2.00;;;-5.20;98.20;;;;;;6146642;23;20450;-77
2024/01/09 06:28:43;;;;;;;2.30;2.10;;;-5.20;98.20;;;;;;6144009;23;20437;-76
2024/01/09 06:31:11;;;;;;;2.40;2.20;;;-5.20;98.20;;;;;;6136981;23;20465;-76
2024/01/09 06:33:38;;;;;;;2.00;1.90;;;-5.20;98.20;;;;;;6132065;23;20428;-76
2024/01/09 06:36:05;;;;;;;2.20;2.10;;;-5.20;98.20;;;;;;6145034;23;20414;-77
2024/01/09 06:38:32;;;;;;;2.30;2.10;;;-5.10;98.20;;;;;;6142606;23;20504;-75
2024/01/09 06:40:59;;;;;;;2.20;2.10;;;-5.20;98.20;;;;;;6138439;23;20520;-77
2024/01/09 06:43:26;;;;;;;2.40;2.20;;;-5.20;98.20;;;;;;6130085;23;20950;-75
2024/01/09 06:45:53;;;;;;;2.30;2.20;;;-5.20;98.20;;;;;;6134340;23;20424;-77
2024/01/09 06:48:21;;;;;;;2.20;2.10;;;-5.20;98.20;;;;;;6126618;23;20441;-77
2024/01/09 06:50:48;;;;;;;2.30;2.20;;;-5.20;98.20;;;;;;6147995;23;20968;-76
2024/01/09 06:53:15;;;;;;;2.23;2.10;;;-5.20;98.20;;;;;;6138148;23;20421;-76
2024/01/09 06:55:42;;;;;;;2.30;2.10;;;-5.20;98.20;;;;;;6153156;23;20425;-76
2024/01/09 06:58:08;;;;;;;2.20;2.10;;;-5.20;98.20;;;;;;6116354;23;20507;-78
2024/01/09 07:00:35;;;;;;;2.37;2.20;;;-5.20;98.20;;;;;;6158805;23;20790;-78
2024/01/09 07:03:02;;;;;;;2.10;2.00;;;-5.20;98.20;;;;;;6115099;23;20854;-76
2024/01/09 07:05:30;;;;;;;2.20;2.10;;;-5.20;98.20;;;;;;6163917;23;20456;-76
2024/01/09 07:07:57;;;;;;;2.37;2.17;;;-5.20;98.20;;;;;;6112796;23;20458;-77
2024/01/09 07:10:24;;;;;;;2.50;2.30;;;-5.20;98.20;;;;;;6152748;23;20468;-77
2024/01/09 07:12:51;;;;;;;2.23;2.10;;;-5.30;98.20;;;;;;6113678;23;20434;-75
2024/01/09 07:15:18;;;;;;;2.10;2.00;;;-5.30;98.20;;;;;;6154311;23;20417;-77
2024/01/09 07:17:46;;;;;;;2.10;2.00;;;-5.30;98.20;;;;;;6114408;23;20454;-77
2024/01/09 07:20:13;;;;;;;2.30;2.10;;;-5.30;98.20;;;;;;6152736;23;20417;-77
2024/01/09 07:22:41;;;;;;;2.20;2.10;;;-5.30;98.20;;;;;;6113709;23;20754;-77
2024/01/09 07:25:09;;;;;;;2.10;2.00;;;-5.30;98.20;;;;;;6151975;23;20954;-76
2024/01/09 07:27:36;;;;;;;2.10;2.00;;;-5.30;98.20;;;;;;6112981;23;20994;-76
2024/01/09 07:30:03;;;;;;;2.10;2.00;;;-5.30;98.20;;;;;;6149993;23;20417;-77
2024/01/09 07:32:30;;;;;;;2.50;2.30;;;-5.30;98.20;;;;;;6113847;23;20463;-77
2024/01/09 07:34:57;;;;;;;2.30;2.10;;;-5.40;98.20;;;;;;6150165;23;20428;-76
2024/01/09 07:37:24;;;;;;;2.27;2.10;;;-5.30;98.20;;;;;;6116194;23;20745;-76
2024/01/09 07:39:53;;;;;;;2.23;2.10;;;-5.30;98.20;;;;;;6146410;23;20421;-76
2024/01/09 07:42:20;;;;;;;2.10;2.00;;;-5.30;98.20;;;;;;6117002;23;20927;-76
2024/01/09 07:44:47;;;;;;;2.10;2.00;;;-5.30;98.20;;;;;;6147545;23;20417;-76
2024/01/09 07:47:13;;;;;;;2.30;2.10;;;-5.30;98.20;;;;;;6116562;23;20449;-77
2024/01/09 07:49:40;;;;;;;2.10;2.00;;;-5.40;98.20;;;;;;6144673;23;20447;-76
2024/01/09 07:52:07;;;;;;;2.10;2.00;;;-5.40;98.20;;;;;;6125642;23;20460;-78
2024/01/09 07:54:34;;;;;;;2.20;2.10;;;-5.40;98.20;;;;;;6150054;23;20435;-78
2024/01/09 07:57:02;;;;;;;2.30;2.13;;;-5.40;98.20;;;;;;6125604;23;20457;-77
2024/01/09 07:59:29;;;;;;;2.33;2.20;;;-5.40;98.20;;;;;;6148906;23;20679;-76
2024/01/09 08:01:57;;;;;;;2.20;2.10;;;-5.40;98.20;;;;;;6128379;23;20469;-77
2024/01/09 08:04:24;;;;;;;2.40;2.20;;;-5.40;98.20;;;;;;6149131;23;20476;-78
2024/01/09 08:06:51;;;;;;;2.40;2.20;;;-5.30;98.20;;;;;;6127567;23;20450;-77
2024/01/09 08:09:18;;;;;;;2.97;2.77;;;-5.30;98.20;;;;;;6145385;23;20521;-77
2024/01/09 08:11:45;;;;;;;2.30;2.20;;;-5.20;98.20;;;;;;6131270;23;20449;-78
2024/01/09 08:14:14;;;;;;;2.30;2.20;;;-5.10;98.20;;;;;;6144951;23;20421;-76
2024/01/09 08:16:41;;;;;;;2.20;2.10;;;-5.10;98.20;;;;;;6130471;23;20469;-77
2024/01/09 08:19:08;;;;;;;2.10;2.00;;;-5.00;98.20;;;;;;6143687;23;20464;-76
2024/01/09 08:21:35;;;;;;;2.10;2.00;;;-5.00;98.20;;;;;;6131420;23;20533;-77
2024/01/09 08:24:02;;;;;;;2.33;2.20;;;-4.90;98.20;;;;;;6143063;23;20436;-77
2024/01/09 08:26:29;;;;;;;2.20;2.10;;;-4.90;98.20;;;;;;6133795;23;20665;-78
2024/01/09 08:28:56;;;;;;;2.20;2.10;;;-4.80;98.20;;;;;;6140427;23;20527;-76
2024/01/09 08:31:24;;;;;;;2.20;2.10;;;-4.70;98.20;;;;;;6133861;23;20963;-77
2024/01/09 08:33:51;;;;;;;2.20;2.10;;;-4.70;98.20;;;;;;6141075;23;20421;-78
2024/01/09 08:36:18;;;;;;;2.10;2.00;;;-4.60;98.20;;;;;;6138432;23;20450;-77
2024/01/09 08:38:47;;;;;;;2.40;2.20;;;-4.60;98.20;;;;;;6143782;23;20508;-77
2024/01/09 08:41:17;;;;;;;2.20;2.10;;;-4.50;98.20;;;;;;6141712;23;20497;-77
2024/01/09 08:43:44;;;;;;;2.30;2.10;;;-4.50;98.20;;;;;;6135047;23;20763;-77
2024/01/09 08:46:10;;;;;;;2.20;2.10;;;-4.40;98.20;;;;;;6132383;23;20786;-77
2024/01/09 08:48:39;;;;;;;2.20;2.10;;;-4.40;98.20;;;;;;6130895;23;20472;-77
2024/01/09 08:51:06;;;;;;;2.00;1.90;;;-4.30;98.20;;;;;;6133566;23;22949;-77
2024/01/09 08:53:33;;;;;;;2.27;2.17;;;-4.20;98.20;;;;;;6131704;23;20427;-76
2024/01/09 08:56:00;;;;;;;2.10;2.00;;;-4.10;98.20;;;;;;6134657;23;20428;-77
2024/01/09 08:58:26;;;;;;;2.40;2.20;;;-4.00;98.20;;;;;;6131910;23;20513;-77
2024/01/09 09:00:53;;;;;;;2.20;2.10;;;-3.80;98.20;;;;;;6148463;23;20851;-77
2024/01/09 09:03:20;;;;;;;2.30;2.10;;;-3.70;98.20;;;;;;6132474;23;20511;-78
2024/01/09 09:05:48;;;;;;;2.10;2.00;;;-3.60;98.20;;;;;;6146929;23;20452;-77
2024/01/09 09:08:15;;;;;;;2.10;2.00;;;-3.60;98.20;;;;;;6130735;23;20984;-78
2024/01/09 09:10:42;;;;;;;2.10;2.00;;;-3.60;98.20;;;;;;6156846;23;20452;-77
2024/01/09 09:13:09;;;;;;;2.10;2.00;;;-3.60;98.20;;;;;;6115866;23;20444;-77
2024/01/09 09:15:36;;;;;;;2.00;1.90;;;-3.60;98.20;;;;;;6156624;23;20600;-78
2024/01/09 09:18:03;;;;;;;2.10;2.00;;;-3.70;98.20;;;;;;6115627;23;20549;-77
2024/01/09 09:20:30;;;;;;;2.20;2.10;;;-3.70;98.20;;;;;;6159157;23;20515;-77
2024/01/09 09:22:58;;;;;;;2.10;2.00;;;-3.70;98.20;;;;;;6118700;23;20452;-77
2024/01/09 09:25:27;;;;;;;2.10;2.00;;;-3.70;98.20;;;;;;6159173;23;20416;-78
2024/01/09 09:27:54;;;;;;;2.00;1.90;;;-3.70;98.20;;;;;;6117839;23;20459;-77
2024/01/09 09:30:21;;;;;;;2.10;2.00;;;-3.60;98.20;;;;;;6169398;23;20949;-78
2024/01/09 09:32:48;;;;;;;2.20;2.10;;;-3.60;98.20;;;;;;6113964;23;20961;-76
2024/01/09 09:35:15;;;;;;;2.10;2.00;;;-3.60;98.20;;;;;;6150324;23;20425;-76
2024/01/09 09:37:44;;;;;;;2.10;2.00;;;-3.60;98.20;;;;;;6102882;23;20449;-76
2024/01/09 09:40:13;;;;;;;2.47;2.27;;;-3.60;98.20;;;;;;6148183;23;20429;-76
2024/01/09 09:42:42;;;;;;;2.10;2.00;;;-3.60;98.20;;;;;;6110062;23;21038;-76
2024/01/09 09:45:12;;;;;;;2.00;1.90;;;-3.60;98.20;;;;;;6150712;23;20825;-76
2024/01/09 09:47:40;;;;;;;2.10;2.00;;;-3.60;98.20;;;;;;6110948;23;20445;-76
2024/01/09 09:50:10;;;;;;;2.10;2.00;;;-3.60;98.20;;;;;;6149654;23;20479;-77
2024/01/09 09:52:42;;;;;;;2.10;2.00;;;-3.50;98.20;;;;;;6112093;23;20488;-76
2024/01/09 09:55:08;;;;;;;2.10;2.00;;;-3.50;98.20;;;;;;6149586;23;20745;-76
2024/01/09 09:57:37;;;;;;;2.10;2.00;;;-3.50;98.20;;;;;;6110035;23;20533;-76
2024/01/09 10:00:08;;;;;;;2.00;1.90;;;-3.40;98.20;;;;;;6151750;23;20511;-77
2024/01/09 10:02:35;;;;;;;2.00;1.90;;;-3.40;98.20;;;;;;6114761;23;20453;-76
2024/01/09 10:05:07;;;;;;;2.00;1.90;;;-3.40;98.20;;;;;;6156834;23;20532;-77
2024/01/09 10:07:39;;;;;;;2.03;1.93;;;-3.30;98.20;;;;;;6121497;23;20512;-77
2024/01/09 10:10:08;;;;;;;2.00;1.90;;;-3.30;98.20;;;;;;6159232;23;20534;-79
2024/01/09 10:12:36;;;;;;;2.00;1.90;;;-3.30;98.20;;;;;;6122434;23;20448;-78
2024/01/09 10:15:08;;;;;;;2.10;2.00;;;-3.20;98.20;;;;;;6157323;23;20420;-78
2024/01/09 10:17:36;;;;;;;2.10;2.00;;;-3.20;98.20;;;;;;6119700;23;20473;-77
2024/01/09 10:20:04;;;;;;;1.90;1.80;;;-3.10;98.20;;;;;;6156817;23;20821;-78
2024/01/09 10:22:33;;;;;;;2.00;1.90;;;-3.10;98.20;;;;;;6121726;23;20461;-78
2024/01/09 10:25:00;;;;;;;2.00;1.90;;;-3.00;98.20;;;;;;6157049;23;20512;-77
2024/01/09 10:27:27;;;;;;;13.17;5.93;;;-3.00;98.20;;;;;;6123963;23;20456;-78
2024/01/09 10:29:55;;;;;;;2.10;2.00;;;-2.90;98.20;;;;;;6168620;23;20428;-77
2024/01/09 10:32:21;;;;;;;2.10;2.00;;;-2.90;98.20;;;;;;6128950;23;20531;-76
2024/01/09 10:34:48;;;;;;;2.00;1.90;;;-2.90;98.20;;;;;;6155757;23;20504;-78
2024/01/09 10:37:15;;;;;;;4.30;4.10;;;-2.80;98.20;;;;;;6125780;23;20217;-79
2024/01/09 10:39:42;;;;;;;2.10;2.00;;;-2.80;98.20;;;;;;6154407;23;20541;-78
2024/01/09 10:42:10;;;;;;;1.93;1.83;;;-2.70;98.20;;;;;;6128824;23;20456;-78
2024/01/09 10:44:40;;;;;;;2.00;1.90;;;-2.70;98.20;;;;;;6151438;23;20488;-78
2024/01/09 10:47:10;;;;;;;2.10;2.00;;;-2.60;98.20;;;;;;6126028;23;20450;-78
2024/01/09 10:49:39;;;;;;;2.20;2.10;;;-2.60;98.20;;;;;;6153128;23;20447;-77
2024/01/09 10:52:11;;;;;;;1.90;1.80;;;-2.60;98.20;;;;;;6136407;23;20457;-78
2024/01/09 10:54:40;;;;;;;2.00;1.90;;;-2.50;98.20;;;;;;6148185;23;20409;-78
2024/01/09 10:57:10;;;;;;;2.10;2.00;;;-2.50;98.20;;;;;;6121669;23;20455;-75
2024/01/09 10:59:39;;;;;;;2.33;2.17;;;-2.40;98.20;;;;;;6153614;23;20484;-77
2024/01/09 11:02:15;;;;;;;2.00;1.90;;;-2.40;98.20;;;;;;6120111;23;21114;-76
2024/01/09 11:04:43;;;;;;;2.00;1.90;;;-2.40;98.20;;;;;;6145046;23;20451;-79
2024/01/09 11:07:14;;;;;;;2.00;1.90;;;-2.30;98.20;;;;;;6124491;23;20449;-77
2024/01/09 11:09:43;;;;;;;3.80;3.50;;;-2.30;98.20;;;;;;6149366;23;20495;-77
2024/01/09 11:12:15;;;;;;;2.00;1.90;;;-2.20;98.10;;;;;;6123190;23;20446;-77
2024/01/09 11:14:45;;;;;;;2.00;1.90;;;-2.20;98.00;;;;;;6148313;23;20488;-77
2024/01/09 11:17:16;;;;;;;1.90;1.80;;;-2.20;98.20;;;;;;6122642;23;20919;-77
2024/01/09 11:19:43;;;;;;;2.20;2.10;;;-2.10;98.10;;;;;;6149992;23;20481;-77
2024/01/09 11:22:14;;;;;;;2.10;2.00;;;-2.10;96.90;;;;;;6126629;23;20483;-77
2024/01/09 11:24:41;;;;;;;1.90;1.80;;;-2.00;96.90;;;;;;6153598;23;20770;-78
2024/01/09 11:27:11;;;;;;;2.40;2.20;;;-2.00;97.00;;;;;;6125586;23;20460;-75
2024/01/09 11:29:48;;;;;;;3.23;3.03;;;-1.90;96.20;;;;;;6148868;23;20480;-78
2024/01/09 11:32:18;;;;;;;2.00;1.90;;;-1.90;95.80;;;;;;6125436;23;20756;-78
2024/01/09 11:34:46;;;;;;;2.00;1.90;;;-1.90;95.70;;;;;;6153569;23;20529;-78
2024/01/09 11:37:14;;;;;;;1.80;1.70;;;-1.80;96.10;;;;;;6123680;23;20477;-78
2024/01/09 11:39:41;;;;;;;2.00;1.90;;;-1.80;95.70;;;;;;6151695;23;20484;-78
2024/01/09 11:42:08;;;;;;;2.00;1.90;;;-1.80;95.30;;;;;;6128132;23;20504;-78
2024/01/09 11:44:35;;;;;;;2.00;1.90;;;-1.70;95.00;;;;;;6149821;23;20432;-79
2024/01/09 11:47:02;;;;;;;1.90;1.80;;;-1.70;95.20;;;;;;6132024;23;20605;-78
2024/01/09 11:49:30;;;;;;;2.00;1.90;;;-1.60;95.40;;;;;;6161280;23;20445;-78
2024/01/09 11:51:58;;;;;;;2.10;2.00;;;-1.60;94.90;;;;;;6133420;23;20453;-78
2024/01/09 11:54:24;;;;;;;1.90;1.80;;;-1.60;95.30;;;;;;6146883;23;20934;-77
2024/01/09 11:56:51;;;;;;;23.10;21.60;;;-1.50;94.70;;;;;;6128095;23;21025;-78
2024/01/09 11:59:19;;;;;;;1.90;1.80;;;-1.50;94.80;;;;;;6142450;23;20456;-78
2024/01/09 12:01:46;;;;;;;2.00;1.90;;;-1.50;94.40;;;;;;6125952;23;20450;-80
2024/01/09 12:04:13;;;;;;;2.00;1.90;;;-1.50;93.70;;;;;;6142172;23;20413;-77
2024/01/09 12:06:41;;;;;;;1.90;1.80;;;-1.40;93.90;;;;;;6125101;23;20548;-76
2024/01/09 12:09:09;;;;;;;2.77;2.57;;;-1.40;93.80;;;;;;6136658;23;20454;-77
2024/01/09 12:11:37;;;;;;;2.07;1.97;;;-1.30;93.70;;;;;;6125827;23;20775;-77
2024/01/09 12:14:05;;;;;;;1.90;1.80;;;-1.30;93.50;;;;;;6136281;23;20449;-76
2024/01/09 12:16:32;;;;;;;1.90;1.80;;;-1.30;93.80;;;;;;6126282;23;20537;-78
2024/01/09 12:19:00;;;;;;;1.90;1.80;;;-1.20;93.00;;;;;;6134347;23;20448;-77
2024/01/09 12:21:29;;;;;;;2.00;1.90;;;-1.20;93.30;;;;;;6136900;23;20886;-76
2024/01/09 12:23:59;;;;;;;1.90;1.80;;;-1.10;93.70;;;;;;6134749;23;20439;-78
2024/01/09 12:26:28;;;;;;;1.90;1.80;;;-1.10;93.10;;;;;;6127216;23;20891;-77
2024/01/09 12:28:56;;;;;;;1.90;1.80;;;-1.00;93.10;;;;;;6129950;23;20452;-77
2024/01/09 12:31:24;;;;;;;2.00;1.90;;;-1.00;92.40;;;;;;6138423;23;20458;-79
2024/01/09 12:33:53;;;;;;;18.00;16.20;;;-1.00;93.00;;;;;;6135647;23;20792;-77
2024/01/09 12:36:20;;;;;;;1.90;1.80;;;-0.90;92.60;;;;;;6127937;23;20548;-77
2024/01/09 12:38:47;;;;;;;1.90;1.80;;;-0.90;91.90;;;;;;6135840;23;20444;-78
2024/01/09 12:41:22;;;;;;;1.90;1.80;;;-0.90;93.00;;;;;;6142520;23;20454;-77
2024/01/09 12:43:49;;;;;;;1.90;1.80;;;-0.80;92.50;;;;;;6136102;23;20610;-79
2024/01/09 12:46:16;;;;;;;1.90;1.80;;;-0.80;91.60;;;;;;6142512;23;20535;-79